Time;durP1;ratioP1;P1;durP2;ratioP2;P2;SDS_P1;SDS_P2;PMS_P1;PMS_P2;Temp;Humidity;BMP_temperature;BMP_pressure;BME280_temperature;BME280_humidity;BME280_pressure;Samples;Min_cycle;Max_cycle;Signal;HPM_P1;HPM_P2
2022/01/17 00:00:10;;;;;;;0.97;0.97;;;;;;;1.79;75.99;96065.53;5090721;28;20504;-54
2022/01/17 00:02:53;;;;;;;0.30;0.20;;;;;;;1.23;79.86;96065.72;5091896;28;20822;-54
2022/01/17 00:05:23;;;;;;;0.90;0.90;;;;;;;0.84;86.41;96064.63;5091484;28;20958;-54
2022/01/17 00:07:52;;;;;;;0.40;0.40;;;;;;;0.79;88.73;96067.81;5091425;28;20493;-54
2022/01/17 00:10:21;;;;;;;0.30;0.20;;;;;;;0.81;88.03;96033.72;5091352;28;20977;-54
2022/01/17 00:12:52;;;;;;;1.27;1.27;;;;;;;0.79;88.47;96062.59;5091427;28;20432;-54
2022/01/17 00:15:27;;;;;;;3.23;2.40;;;;;;;0.56;89.24;96009.88;5091564;28;20476;-54
2022/01/17 00:18:22;;;;;;;2.10;1.07;;;;;;;1.01;87.31;96058.94;5091297;28;20438;-54
2022/01/17 00:20:49;;;;;;;1.43;1.37;;;;;;;1.08;85.41;96065.03;5091353;28;20491;-54
2022/01/17 00:23:18;;;;;;;1.33;1.23;;;;;;;1.12;86.61;96065.44;5090863;28;20460;-54
2022/01/17 00:25:47;;;;;;;4.47;3.60;;;;;;;1.10;85.95;96063.03;5091654;28;20428;-54
2022/01/17 00:28:15;;;;;;;2.57;2.37;;;;;;;1.03;86.68;96061.38;5090891;28;20932;-54
2022/01/17 00:30:44;;;;;;;1.57;1.57;;;;;;;1.06;86.32;96061.78;5091038;28;20428;-54
2022/01/17 00:33:15;;;;;;;0.30;0.30;;;;;;;0.89;86.11;96036.16;5091273;28;20436;-54
2022/01/17 00:35:44;;;;;;;1.50;1.50;;;;;;;0.91;87.49;96063.69;5091179;28;20517;-55
2022/01/17 00:38:14;;;;;;;0.27;0.23;;;;;;;0.94;87.73;96067.72;5092923;28;21102;-54
2022/01/17 00:40:43;;;;;;;3.50;1.00;;;;;;;0.81;89.51;96065.03;5095247;28;20966;-55
2022/01/17 00:43:13;;;;;;;0.90;0.90;;;;;;;0.89;87.83;96057.84;5094672;28;20508;-54
2022/01/17 00:45:43;;;;;;;0.53;0.53;;;;;;;0.66;88.05;96014.78;5094723;28;20464;-54
2022/01/17 00:48:12;;;;;;;0.30;0.20;;;;;;;1.06;86.08;96064.38;5094693;28;20443;-54
2022/01/17 00:50:41;;;;;;;0.30;0.20;;;;;;;0.93;85.76;96038.22;5094627;28;20998;-54
2022/01/17 00:53:10;;;;;;;0.77;0.77;;;;;;;0.71;88.03;96060.13;5094670;28;20949;-54
2022/01/17 00:55:40;;;;;;;2.43;2.40;;;;;;;0.97;87.59;96057.72;5094429;28;20464;-54
2022/01/17 00:58:09;;;;;;;0.30;0.30;;;;;;;0.84;87.50;96059.41;5094600;28;20993;-55
2022/01/17 01:00:38;;;;;;;0.20;0.20;;;;;;;0.96;86.69;96060.53;5093542;28;20524;-54
2022/01/17 01:03:07;;;;;;;0.73;0.73;;;;;;;0.91;85.48;96039.41;5094629;28;20508;-54
2022/01/17 01:05:36;;;;;;;1.40;1.40;;;;;;;0.98;85.68;96055.91;5094409;28;20467;-54
2022/01/17 01:08:05;;;;;;;1.50;1.50;;;;;;;-4.67;84.94;95219.19;5094661;28;20432;-54
2022/01/17 01:10:34;;;;;;;8.33;1.50;;;;;;;0.81;84.93;96020.69;5094487;28;20840;-54
2022/01/17 01:13:04;;;;;;;2.77;2.23;;;;;;;0.91;85.29;96036.81;5093439;28;20490;-54
2022/01/17 01:15:45;;;;;;;0.77;0.77;;;;;;;0.54;86.99;95999.63;5094057;28;20464;-54
2022/01/17 01:18:17;;;;;;;1.27;1.17;;;;;;;0.89;87.23;96026.53;5094081;28;20460;-54
2022/01/17 01:29:14;;;;;;;0.20;0.20;;;;;;;0.77;87.10;96020.25;5093496;28;20454;-54
2022/01/17 01:31:47;;;;;;;0.30;0.20;;;;;;;0.67;87.29;96017.19;5093648;28;20456;-54
2022/01/17 01:34:19;;;;;;;0.30;0.20;;;;;;;0.83;86.58;96013.47;5093333;28;20928;-53
2022/01/17 01:36:49;;;;;;;0.30;0.30;;;;;;;0.41;90.08;96006.53;5093766;28;20432;-53
2022/01/17 01:39:23;;;;;;;1.03;1.03;;;;;;;0.66;88.31;95999.91;5093810;28;20832;-53
2022/01/17 01:41:52;;;;;;;2.17;0.57;;;;;;;0.59;88.16;96006.88;5093257;28;20495;-54
2022/01/17 01:44:24;;;;;;;0.20;0.20;;;;;;;0.63;89.10;95997.69;5093277;28;20453;-54
2022/01/17 01:46:54;;;;;;;0.30;0.20;;;;;;;0.67;87.76;95987.66;5093445;28;20490;-53
2022/01/17 01:49:24;;;;;;;0.40;0.40;;;;;;;0.57;89.18;95991.44;5093255;28;20428;-54
2022/01/17 01:51:53;;;;;;;0.30;0.20;;;;;;;-0.10;91.62;95931.16;5093399;28;20429;-54
2022/01/17 01:54:21;;;;;;;0.40;0.40;;;;;;;-1.01;92.63;95813.22;5093305;28;20977;-54
2022/01/17 01:56:51;;;;;;;0.90;0.90;;;;;;;0.41;91.63;95970.03;5093320;28;20466;-54
2022/01/17 01:59:22;;;;;;;0.20;0.20;;;;;;;0.42;90.54;95966.44;5093527;28;20420;-54
2022/01/17 02:01:52;;;;;;;0.60;0.60;;;;;;;-0.24;90.10;95866.94;5093249;28;20525;-54
2022/01/17 02:04:21;;;;;;;0.30;0.20;;;;;;;0.11;92.62;95955.59;5093463;28;20474;-54
2022/01/17 02:06:49;;;;;;;0.30;0.30;;;;;;;0.29;92.74;95963.75;5093021;28;20437;-54
2022/01/17 02:09:18;;;;;;;0.50;0.43;;;;;;;0.49;89.99;95968.09;5093417;28;20483;-54
2022/01/17 02:11:46;;;;;;;1.43;0.53;;;;;;;0.47;89.65;95964.88;5092723;28;20784;-54
2022/01/17 02:14:15;;;;;;;0.40;0.37;;;;;;;0.12;90.18;95915.50;5093076;28;20420;-54
2022/01/17 02:16:47;;;;;;;0.20;0.20;;;;;;;0.42;89.03;95966.44;5092947;28;20471;-54
2022/01/17 02:19:21;;;;;;;0.40;0.40;;;;;;;0.33;89.67;95952.75;5092932;28;20904;-54
2022/01/17 02:21:51;;;;;;;0.30;0.30;;;;;;;0.50;89.33;95954.09;5092849;28;20468;-54
2022/01/17 02:24:21;;;;;;;1.90;1.90;;;;;;;0.70;87.68;95954.19;5092789;28;20450;-54
2022/01/17 02:26:53;;;;;;;0.30;0.20;;;;;;;0.56;87.69;95958.50;5092703;28;20997;-54
2022/01/17 02:29:22;;;;;;;0.40;0.40;;;;;;;0.51;88.58;95960.88;5092723;28;20460;-55
2022/01/17 02:31:50;;;;;;;0.20;0.20;;;;;;;-0.28;88.67;95844.84;5092624;28;20468;-55
2022/01/17 02:34:19;;;;;;;0.20;0.20;;;;;;;0.50;89.48;95958.50;5092443;28;20417;-55
2022/01/17 02:36:48;;;;;;;0.20;0.20;;;;;;;0.44;88.71;95944.41;5092739;28;20476;-54
2022/01/17 02:39:18;;;;;;;4.73;0.97;;;;;;;0.37;89.19;95951.38;5092546;28;20963;-55
2022/01/17 02:41:49;;;;;;;0.30;0.20;;;;;;;0.28;90.07;95949.13;5092300;28;21014;-55
2022/01/17 02:44:18;;;;;;;0.23;0.20;;;;;;;0.15;93.00;95949.81;5092081;28;20448;-55
2022/01/17 02:46:46;;;;;;;0.20;0.20;;;;;;;0.32;91.40;95934.69;5092470;28;20493;-54
2022/01/17 02:49:15;;;;;;;0.30;0.30;;;;;;;-0.96;89.87;95733.59;5092689;28;20520;-55
2022/01/17 02:51:48;;;;;;;0.40;0.40;;;;;;;0.49;89.69;95943.81;5092263;28;20456;-55
2022/01/17 02:54:17;;;;;;;0.40;0.40;;;;;;;0.32;89.89;95945.94;5092610;28;20456;-55
2022/01/17 02:56:46;;;;;;;0.30;0.30;;;;;;;0.33;89.41;95942.31;5092148;28;20840;-55
2022/01/17 02:59:14;;;;;;;0.20;0.20;;;;;;;0.26;89.81;95948.47;5092057;28;20421;-55
2022/01/17 03:01:43;;;;;;;0.40;0.40;;;;;;;0.26;89.61;95919.81;5091723;28;20460;-55
2022/01/17 03:04:12;;;;;;;0.20;0.20;;;;;;;0.56;87.52;95937.66;5092340;28;20436;-55
2022/01/17 03:06:41;;;;;;;0.30;0.30;;;;;;;0.38;87.71;95946.97;5092137;28;20459;-55
2022/01/17 03:09:09;;;;;;;0.23;0.20;;;;;;;-0.31;88.56;95855.69;5091970;28;20416;-55
2022/01/17 03:11:39;;;;;;;0.20;0.20;;;;;;;0.24;88.03;95921.81;5092339;28;20466;-55
2022/01/17 03:14:08;;;;;;;0.57;0.57;;;;;;;0.09;91.47;95944.53;5091991;28;20669;-55
2022/01/17 03:16:45;;;;;;;0.20;0.20;;;;;;;0.00;91.59;95929.03;5091937;28;21040;-55
2022/01/17 03:19:13;;;;;;;0.20;0.20;;;;;;;0.19;92.09;95926.78;5091930;28;20439;-55
2022/01/17 03:21:42;;;;;;;0.20;0.20;;;;;;;0.23;90.33;95913.16;5092001;28;20424;-55
2022/01/17 03:24:11;;;;;;;0.20;0.20;;;;;;;-1.76;94.94;95677.66;5091798;28;20436;-55
2022/01/17 03:26:41;;;;;;;0.30;0.30;;;;;;;0.08;93.65;95924.72;5091884;28;20425;-55
2022/01/17 03:29:09;;;;;;;0.30;0.30;;;;;;;0.20;91.57;95921.41;5091997;28;20461;-55
2022/01/17 03:31:38;;;;;;;0.20;0.20;;;;;;;0.03;89.66;95899.19;5092048;28;20424;-55
2022/01/17 03:34:06;;;;;;;1.73;1.70;;;;;;;0.26;89.47;95922.41;5091935;28;20523;-55
2022/01/17 03:36:35;;;;;;;1.63;1.50;;;;;;;0.09;91.82;95918.50;5091646;28;20556;-54
2022/01/17 03:39:04;;;;;;;2.50;1.53;;;;;;;-0.26;93.31;95918.44;5091975;28;20808;-55
2022/01/17 03:41:32;;;;;;;0.20;0.20;;;;;;;-0.10;93.72;95905.13;5091757;28;20974;-54
2022/01/17 03:44:02;;;;;;;2.33;2.23;;;;;;;-0.18;93.84;95910.47;5091881;28;20986;-55
2022/01/17 03:46:31;;;;;;;0.20;0.20;;;;;;;-0.25;92.08;95869.72;5092026;28;20425;-54
2022/01/17 03:48:59;;;;;;;1.03;0.93;;;;;;;-0.28;90.51;95857.88;5091926;28;20489;-54
2022/01/17 03:51:28;;;;;;;0.30;0.20;;;;;;;-0.03;92.04;95905.97;5090999;28;20456;-54
2022/01/17 03:53:56;;;;;;;0.30;0.20;;;;;;;0.22;90.07;95911.56;5091587;28;20425;-54
2022/01/17 03:56:25;;;;;;;0.37;0.37;;;;;;;0.28;88.76;95904.81;5091463;28;20460;-53
2022/01/17 03:58:53;;;;;;;0.30;0.30;;;;;;;0.14;89.33;95909.09;5091214;28;20472;-54
2022/01/17 04:01:23;;;;;;;0.20;0.20;;;;;;;0.02;92.23;95904.59;5091499;28;20510;-54
2022/01/17 04:03:52;;;;;;;0.30;0.30;;;;;;;-0.07;92.85;95902.13;5091849;28;20515;-54
2022/01/17 04:06:20;;;;;;;0.20;0.20;;;;;;;-0.05;93.41;95897.53;5091439;28;20472;-55
2022/01/17 04:08:49;;;;;;;0.30;0.20;;;;;;;-0.18;95.06;95905.25;5091476;28;20480;-55
2022/01/17 04:11:18;;;;;;;0.30;0.30;;;;;;;-0.16;95.28;95900.69;5092540;28;20453;-55
2022/01/17 04:13:46;;;;;;;0.53;0.53;;;;;;;-0.29;96.59;95897.16;5095292;28;20448;-55
2022/01/17 04:16:15;;;;;;;1.57;0.97;;;;;;;-0.21;94.61;95900.44;5095195;28;21033;-55
2022/01/17 04:18:45;;;;;;;1.27;1.27;;;;;;;0.04;93.35;95895.59;5095618;28;20413;-55
2022/01/17 04:21:14;;;;;;;0.53;0.50;;;;;;;-2.05;97.67;95733.09;5094729;28;20475;-55
2022/01/17 04:23:42;;;;;;;0.50;0.40;;;;;;;-0.64;100.00;95901.44;5095151;28;20470;-55
2022/01/17 04:26:10;;;;;;;0.30;0.30;;;;;;;-0.60;100.00;95902.66;5094978;28;20424;-55
2022/01/17 04:28:39;;;;;;;0.50;0.50;;;;;;;-0.42;99.80;95905.66;5094917;28;20987;-55
2022/01/17 04:31:07;;;;;;;0.57;0.57;;;;;;;-0.40;98.03;95897.63;5095051;28;20417;-55
2022/01/17 04:33:36;;;;;;;1.10;1.10;;;;;;;-0.65;100.00;95908.44;5095169;28;20433;-54
2022/01/17 04:36:07;;;;;;;0.30;0.20;;;;;;;-0.87;100.00;95912.03;5094899;28;20502;-55
2022/01/17 04:38:36;;;;;;;0.30;0.20;;;;;;;-1.41;100.00;95892.56;5094911;28;20436;-55
2022/01/17 04:41:12;;;;;;;0.30;0.30;;;;;;;-1.38;100.00;95905.22;5094451;28;20482;-55
2022/01/17 04:43:56;;;;;;;0.40;0.40;;;;;;;-1.36;100.00;95911.84;5094857;28;20491;-55
2022/01/17 04:46:25;;;;;;;0.30;0.23;;;;;;;-1.52;100.00;95903.44;5094238;28;20948;-54
2022/01/17 04:48:54;;;;;;;0.30;0.20;;;;;;;-1.46;100.00;95907.91;5094561;28;20432;-54
2022/01/17 04:51:23;;;;;;;0.20;0.20;;;;;;;-0.98;100.00;95909.06;5094726;28;20511;-54
2022/01/17 04:54:13;;;;;;;1.87;1.70;;;;;;;-1.38;100.00;95918.19;5094532;28;20515;-54
2022/01/17 04:56:42;;;;;;;0.20;0.20;;;;;;;-1.12;100.00;95902.13;5094356;28;20521;-54
2022/01/17 04:59:10;;;;;;;0.30;0.20;;;;;;;-0.78;100.00;95910.91;5094853;28;20451;-55
2022/01/17 05:01:38;;;;;;;0.80;0.80;;;;;;;-0.72;100.00;95899.78;5094250;28;20479;-54
2022/01/17 05:04:07;;;;;;;1.17;1.17;;;;;;;-0.87;100.00;95891.19;5094290;28;20455;-54
2022/01/17 05:06:37;;;;;;;0.50;0.50;;;;;;;-0.72;100.00;95891.16;5094483;28;20468;-54
2022/01/17 05:09:05;;;;;;;6.23;2.63;;;;;;;-0.75;100.00;95894.13;5094585;28;20506;-54
2022/01/17 05:11:34;;;;;;;0.63;0.63;;;;;;;-1.24;100.00;95865.38;5093300;28;20429;-55
2022/01/17 05:14:03;;;;;;;0.30;0.20;;;;;;;-0.90;100.00;95896.78;5094228;28;20440;-54
2022/01/17 05:16:35;;;;;;;2.73;2.63;;;;;;;-1.02;100.00;95905.25;5093986;28;20511;-55
2022/01/17 05:21:51;;;;;;;0.40;0.40;;;;;;;-2.36;100.00;95717.72;5093932;28;20436;-54
2022/01/17 05:24:20;;;;;;;1.00;1.00;;;;;;;-0.99;100.00;95912.69;5093052;28;20440;-54
2022/01/17 05:26:49;;;;;;;0.43;0.43;;;;;;;-1.59;100.00;95853.94;5093848;28;20436;-54
2022/01/17 05:29:17;;;;;;;0.70;0.70;;;;;;;-1.10;100.00;95913.16;5094122;28;20845;-54
2022/01/17 05:31:46;;;;;;;0.67;0.67;;;;;;;-1.08;100.00;95911.16;5093932;28;20432;-54
2022/01/17 05:34:15;;;;;;;0.73;0.73;;;;;;;-1.00;100.00;95911.06;5093647;28;20417;-54
2022/01/17 05:36:43;;;;;;;0.97;0.97;;;;;;;-0.99;100.00;95890.09;5093674;28;20468;-54
2022/01/17 05:39:14;;;;;;;1.20;0.83;;;;;;;-1.02;100.00;95900.03;5092942;28;20444;-54
2022/01/17 05:41:43;;;;;;;0.27;0.23;;;;;;;-0.82;100.00;95899.25;5093258;28;20501;-54
2022/01/17 05:44:16;;;;;;;2.50;1.67;;;;;;;-0.68;100.00;95901.00;5093436;28;20485;-54
2022/01/17 05:46:45;;;;;;;1.07;1.07;;;;;;;-0.51;100.00;95903.38;5093345;28;20440;-53
2022/01/17 05:49:15;;;;;;;0.43;0.43;;;;;;;-0.14;100.00;95903.09;5093672;28;20440;-53
2022/01/17 05:51:44;;;;;;;0.87;0.83;;;;;;;-1.61;96.85;95622.03;5093479;28;20428;-53
2022/01/17 05:54:34;;;;;;;1.57;1.53;;;;;;;0.21;95.85;95881.28;5093101;28;20432;-53
2022/01/17 05:57:03;;;;;;;0.20;0.20;;;;;;;0.45;95.54;95895.66;5093027;28;21042;-53
2022/01/17 05:59:33;;;;;;;2.43;2.23;;;;;;;0.26;90.15;95893.72;5093224;28;20417;-54
2022/01/17 06:02:21;;;;;;;1.93;1.80;;;;;;;-0.32;93.99;95911.34;5052694;28;20446;-54
2022/01/17 06:04:51;;;;;;;0.30;0.20;;;;;;;-0.26;96.21;95905.41;5053099;28;20430;-53
2022/01/17 06:07:20;;;;;;;3.63;3.37;;;;;;;-0.13;93.86;95907.31;5051990;28;20486;-54
2022/01/17 06:09:50;;;;;;;0.40;0.40;;;;;;;0.00;94.71;95889.97;5052593;28;20470;-54
2022/01/17 06:12:19;;;;;;;0.90;0.90;;;;;;;0.47;90.47;95896.28;5051521;28;21024;-54
2022/01/17 06:14:49;;;;;;;0.67;0.67;;;;;;;0.45;89.82;95885.25;5050889;28;20472;-53
2022/01/17 06:17:17;;;;;;;0.60;0.60;;;;;;;0.34;90.05;95870.13;5051094;28;20469;-54
2022/01/17 06:19:46;;;;;;;0.30;0.30;;;;;;;0.15;91.22;95891.69;5051137;28;20516;-53
2022/01/17 06:22:15;;;;;;;3.60;3.33;;;;;;;-0.28;95.53;95891.75;5051485;28;20946;-53
2022/01/17 06:24:45;;;;;;;1.13;1.13;;;;;;;0.12;96.31;95892.88;5051887;28;20430;-53
2022/01/17 06:27:16;;;;;;;2.20;2.10;;;;;;;-0.63;98.90;95867.41;5052130;28;20496;-53
2022/01/17 06:29:45;;;;;;;0.30;0.30;;;;;;;-0.17;98.78;95880.81;5052335;28;20430;-54
2022/01/17 06:32:15;;;;;;;0.30;0.20;;;;;;;0.14;96.57;95890.88;5052192;28;20935;-53
2022/01/17 06:34:55;;;;;;;0.20;0.20;;;;;;;0.39;93.77;95854.72;5049954;28;20868;-53
2022/01/17 06:37:24;;;;;;;2.40;1.77;;;;;;;1.04;90.89;95854.16;5052572;28;20902;-53
2022/01/17 06:39:53;;;;;;;0.20;0.20;;;;;;;1.42;91.33;95875.34;5052252;28;20496;-53
2022/01/17 06:42:24;;;;;;;2.63;2.43;;;;;;;1.22;85.73;95776.88;5052216;28;20464;-52
2022/01/17 06:44:53;;;;;;;2.37;2.30;;;;;;;2.07;80.93;95866.72;5052238;28;20422;-53
2022/01/17 06:47:22;;;;;;;3.03;2.93;;;;;;;2.26;77.68;95873.72;5051847;28;20517;-53
2022/01/17 06:49:50;;;;;;;2.10;2.00;;;;;;;2.32;76.30;95859.84;5052041;28;20422;-52
2022/01/17 06:52:19;;;;;;;2.63;2.43;;;;;;;2.34;73.07;95819.41;5052098;28;20863;-52
2022/01/17 06:54:48;;;;;;;5.40;4.40;;;;;;;2.49;72.22;95855.75;5052374;28;20461;-53
2022/01/17 06:57:16;;;;;;;5.93;3.47;;;;;;;2.58;71.27;95853.75;5052227;28;20430;-53
2022/01/17 06:59:49;;;;;;;2.00;1.90;;;;;;;3.08;68.13;95845.06;5054990;28;20492;-53
2022/01/17 07:02:17;;;;;;;4.50;4.10;;;;;;;3.80;64.76;95842.75;5092476;28;20444;-53
2022/01/17 07:04:50;;;;;;;5.63;3.23;;;;;;;3.25;61.77;95806.06;5092445;28;20577;-53
2022/01/17 07:07:20;;;;;;;5.07;4.73;;;;;;;3.27;64.03;95844.13;5092432;28;20495;-52
2022/01/17 07:09:50;;;;;;;4.17;3.20;;;;;;;1.74;62.61;95582.72;5092091;28;20428;-52
2022/01/17 07:12:18;;;;;;;1.33;1.33;;;;;;;3.84;61.94;95822.94;5092012;28;20421;-52
2022/01/17 07:14:49;;;;;;;2.63;1.80;;;;;;;4.24;59.77;95848.84;5092234;28;20429;-52
2022/01/17 07:17:18;;;;;;;9.23;3.23;;;;;;;4.13;61.33;95846.91;5091805;28;20481;-52
2022/01/17 07:19:48;;;;;;;1.80;1.70;;;;;;;5.26;56.65;95845.44;5092179;28;20428;-51
2022/01/17 07:22:16;;;;;;;1.17;1.17;;;;;;;5.10;54.09;95817.97;5091424;28;20936;-51
2022/01/17 07:24:47;;;;;;;6.30;6.00;;;;;;;4.58;54.40;95724.91;5092162;28;20424;-51
2022/01/17 07:27:16;;;;;;;1.07;1.07;;;;;;;4.86;53.12;95734.81;5091680;28;20429;-51
2022/01/17 07:29:45;;;;;;;0.70;0.70;;;;;;;5.83;51.83;95828.19;5091613;28;20421;-51
2022/01/17 07:32:15;;;;;;;1.03;1.03;;;;;;;6.21;51.31;95812.81;5091373;28;20432;-51
2022/01/17 07:34:44;;;;;;;2.37;1.70;;;;;;;7.29;48.83;95826.88;5091513;28;20439;-51
2022/01/17 07:37:13;;;;;;;2.80;2.70;;;;;;;6.49;48.48;95754.97;5091624;28;20447;-51
2022/01/17 07:39:44;;;;;;;3.80;3.70;;;;;;;6.87;47.06;95818.44;5090812;28;20468;-52
2022/01/17 07:44:57;;;;;;;2.73;2.57;;;;;;;6.50;48.46;95742.63;5091352;28;20531;-51
2022/01/17 07:47:39;;;;;;;5.37;3.00;;;;;;;7.74;47.46;95799.72;5094285;28;20443;-51
2022/01/17 07:50:35;;;;;;;5.00;2.87;;;;;;;8.18;45.53;95759.19;5095808;28;20423;-52
2022/01/17 07:53:04;;;;;;;2.27;2.17;;;;;;;7.91;44.88;95737.97;5095864;28;20451;-52
2022/01/17 07:55:32;;;;;;;0.40;0.33;;;;;;;4.82;43.64;95293.34;5095489;28;20428;-52
2022/01/17 07:58:01;;;;;;;5.13;1.63;;;;;;;7.63;43.47;95703.78;5095486;28;20525;-52
2022/01/17 08:00:29;;;;;;;2.80;2.60;;;;;;;8.22;43.89;95755.03;5094970;28;20587;-52
2022/01/17 08:02:59;;;;;;;3.50;3.17;;;;;;;9.32;42.04;95776.72;5095517;28;20428;-53
2022/01/17 08:05:28;;;;;;;0.50;0.50;;;;;;;8.47;43.18;95796.88;5095868;28;20428;-53
2022/01/17 08:07:56;;;;;;;2.10;0.87;;;;;;;8.73;43.48;95806.69;5095325;28;20468;-53
2022/01/17 08:10:25;;;;;;;1.60;1.50;;;;;;;9.39;42.11;95789.75;5095685;28;20460;-53
2022/01/17 08:12:53;;;;;;;1.93;1.50;;;;;;;10.03;40.90;95794.00;5095052;28;20428;-55
2022/01/17 08:15:22;;;;;;;1.03;0.93;;;;;;;10.52;40.19;95804.44;5095616;28;20576;-55
2022/01/17 08:17:50;;;;;;;1.63;1.53;;;;;;;10.37;39.17;95799.03;5095178;28;20916;-55
2022/01/17 08:20:20;;;;;;;2.40;2.33;;;;;;;9.83;39.47;95817.69;5094841;28;20509;-57
2022/01/17 08:22:49;;;;;;;1.60;1.27;;;;;;;9.37;40.93;95813.00;5095396;28;20448;-57
2022/01/17 08:25:18;;;;;;;4.47;4.30;;;;;;;9.82;39.94;95817.91;5094766;28;20447;-58
2022/01/17 08:27:46;;;;;;;4.90;1.80;;;;;;;9.65;39.85;95886.84;5095158;28;20428;-57
2022/01/17 08:30:15;;;;;;;7.00;3.93;;;;;;;9.21;41.70;95896.66;5095346;28;20525;-57
2022/01/17 08:33:04;;;;;;;8.33;2.87;;;;;;;9.89;40.57;95877.56;5094423;28;20436;-56
2022/01/17 08:35:35;;;;;;;3.63;3.07;;;;;;;10.32;39.85;95871.34;5094711;28;20485;-56
2022/01/17 08:38:03;;;;;;;3.50;1.30;;;;;;;10.33;39.29;95861.53;5094788;28;20481;-56
2022/01/17 08:40:32;;;;;;;1.60;1.50;;;;;;;10.73;38.66;95840.59;5094792;28;20498;-56
2022/01/17 08:43:01;;;;;;;4.10;1.33;;;;;;;11.01;37.68;95837.56;5094572;28;20908;-55
2022/01/17 08:45:29;;;;;;;1.67;1.67;;;;;;;10.91;37.39;95812.84;5094756;28;20460;-55
2022/01/17 08:48:10;;;;;;;12.93;2.07;;;;;;;9.53;39.41;95842.03;5094385;28;20468;-56
2022/01/17 08:50:41;;;;;;;0.83;0.83;;;;;;;10.90;39.26;95811.25;5094734;28;20912;-56
2022/01/17 08:53:13;;;;;;;1.10;1.10;;;;;;;11.02;37.78;95764.88;5094857;28;20428;-55
2022/01/17 08:55:42;;;;;;;5.73;1.33;;;;;;;11.60;36.46;95776.16;5094254;28;20426;-55
2022/01/17 08:58:11;;;;;;;0.83;0.83;;;;;;;12.08;36.21;95784.44;5093183;28;20429;-55
2022/01/17 09:00:40;;;;;;;0.47;0.47;;;;;;;13.02;35.85;95761.59;5092748;28;20608;-55
2022/01/17 09:03:21;;;;;;;1.60;1.10;;;;;;;10.97;37.42;95714.47;5094304;28;20428;-54
2022/01/17 09:05:53;;;;;;;2.30;2.00;;;;;;;11.80;37.97;95734.50;5094582;28;20992;-55
2022/01/17 09:08:22;;;;;;;3.03;1.20;;;;;;;11.58;37.30;95736.59;5094230;28;20466;-54
2022/01/17 09:10:54;;;;;;;2.53;2.40;;;;;;;11.40;36.13;95710.56;5094231;28;20425;-54
2022/01/17 09:13:23;;;;;;;2.03;1.87;;;;;;;11.70;36.74;95726.53;5094570;28;20455;-55
2022/01/17 09:15:53;;;;;;;1.10;1.10;;;;;;;12.65;36.22;95704.28;5094560;28;20841;-54
2022/01/17 09:18:24;;;;;;;1.90;1.80;;;;;;;12.89;35.07;95687.69;5094295;28;20439;-55
2022/01/17 09:20:54;;;;;;;5.43;2.13;;;;;;;12.27;34.99;95681.00;5094244;28;20416;-55
2022/01/17 09:23:23;;;;;;;1.60;1.50;;;;;;;12.40;35.76;95688.41;5092790;28;20489;-54
2022/01/17 09:25:52;;;;;;;1.33;1.23;;;;;;;12.22;35.83;95681.03;5093676;28;20440;-53
2022/01/17 09:28:21;;;;;;;2.30;1.27;;;;;;;13.18;34.80;95691.28;5093981;28;20493;-53
2022/01/17 09:30:51;;;;;;;3.83;1.90;;;;;;;12.66;34.59;95691.78;5093882;28;20460;-53
2022/01/17 09:33:20;;;;;;;4.13;2.90;;;;;;;12.49;34.27;95697.44;5093835;28;20435;-54
2022/01/17 09:35:49;;;;;;;2.53;2.33;;;;;;;13.61;32.97;95679.00;5093861;28;20425;-53
2022/01/17 09:38:19;;;;;;;5.83;4.43;;;;;;;13.39;33.65;95666.09;5093748;28;20975;-54
2022/01/17 09:40:47;;;;;;;3.10;3.00;;;;;;;13.55;33.21;95662.25;5093352;28;20468;-54
2022/01/17 09:43:36;;;;;;;1.13;1.13;;;;;;;13.82;30.96;95651.09;5093533;28;20895;-55
2022/01/17 09:46:05;;;;;;;1.83;1.73;;;;;;;15.64;29.93;95650.38;5093484;28;20520;-55
2022/01/17 09:48:39;;;;;;;1.07;1.07;;;;;;;14.23;30.45;95630.94;5093566;28;20435;-54
2022/01/17 09:51:17;;;;;;;4.03;1.17;;;;;;;14.06;32.17;95645.78;5093499;28;20517;-54
2022/01/17 09:53:51;;;;;;;1.33;1.23;;;;;;;13.90;31.35;95651.28;5093721;28;20425;-56
2022/01/17 09:56:21;;;;;;;1.00;1.00;;;;;;;14.37;31.66;95639.09;5093466;28;20491;-55
2022/01/17 09:58:51;;;;;;;2.00;1.10;;;;;;;14.42;31.38;95636.38;5093367;28;20435;-55
2022/01/17 10:01:20;;;;;;;0.80;0.73;;;;;;;15.92;30.20;95627.19;5092979;28;21082;-54
2022/01/17 10:03:49;;;;;;;0.90;0.90;;;;;;;14.43;30.75;95648.59;5093632;28;20446;-56
2022/01/17 10:06:17;;;;;;;4.23;1.63;;;;;;;15.44;29.89;95652.53;5093224;28;20456;-56
2022/01/17 10:08:47;;;;;;;1.43;1.33;;;;;;;17.33;28.04;95636.88;5092828;28;20490;-55
2022/01/17 10:11:16;;;;;;;2.33;1.00;;;;;;;18.58;26.81;95637.44;5092345;28;20437;-55
2022/01/17 10:13:47;;;;;;;2.43;1.13;;;;;;;17.37;27.28;95633.28;5092743;28;20433;-55
2022/01/17 10:16:19;;;;;;;0.73;0.73;;;;;;;16.94;28.33;95626.78;5092395;28;20435;-57
2022/01/17 10:18:49;;;;;;;1.00;1.00;;;;;;;16.87;27.41;95619.16;5092937;28;20427;-56
2022/01/17 10:21:31;;;;;;;2.87;1.80;;;;;;;18.24;26.16;95617.41;5093019;28;20983;-55
2022/01/17 10:27:18;;;;;;;4.30;1.43;;;;;;;17.47;27.49;95592.06;5092433;28;20451;-56
2022/01/17 10:35:22;;;;;;;1.57;1.43;;;;;;;16.97;29.13;95575.31;5091859;28;20972;-55
2022/01/17 10:38:00;;;;;;;5.30;2.30;;;;;;;17.25;27.91;95549.19;5092965;28;20440;-55
2022/01/17 10:40:32;;;;;;;1.43;1.33;;;;;;;19.02;26.07;95535.16;5092584;28;21068;-55
2022/01/17 10:43:02;;;;;;;5.80;3.23;;;;;;;17.63;26.68;95527.06;5092649;28;20475;-55
2022/01/17 10:45:37;;;;;;;3.13;2.00;;;;;;;17.80;27.01;95530.94;5092630;28;20416;-55
2022/01/17 10:48:06;;;;;;;2.93;2.80;;;;;;;18.32;27.33;95525.41;5092755;28;20490;-54
2022/01/17 10:50:38;;;;;;;2.73;2.63;;;;;;;17.60;27.58;95524.22;5092355;28;20420;-56
2022/01/17 10:53:09;;;;;;;9.30;2.33;;;;;;;17.67;27.45;95533.41;5092695;28;20847;-55
2022/01/17 10:55:41;;;;;;;2.93;2.70;;;;;;;17.84;27.08;95526.50;5092712;28;20445;-55
2022/01/17 10:58:12;;;;;;;4.47;1.20;;;;;;;18.92;25.47;95519.38;5092204;28;20433;-57
2022/01/17 11:00:42;;;;;;;1.70;1.57;;;;;;;18.20;25.88;95514.50;5092127;28;20544;-58
2022/01/17 11:03:13;;;;;;;7.93;2.40;;;;;;;17.71;25.93;95496.03;5092749;28;20428;-57
2022/01/17 11:05:45;;;;;;;3.03;2.93;;;;;;;18.21;26.13;95501.88;5092330;28;20424;-57
2022/01/17 11:08:16;;;;;;;2.60;2.40;;;;;;;17.76;26.37;95494.00;5092520;28;20440;-57
2022/01/17 11:10:48;;;;;;;3.00;2.23;;;;;;;18.28;25.82;95478.84;5092448;28;20455;-57
2022/01/17 11:13:18;;;;;;;0.97;0.97;;;;;;;16.50;27.07;95485.59;5092473;28;20460;-57
2022/01/17 11:15:50;;;;;;;1.83;1.63;;;;;;;16.80;26.84;95481.47;5092052;28;20989;-56
2022/01/17 11:18:22;;;;;;;1.83;1.27;;;;;;;19.20;25.65;95476.81;5091926;28;20944;-56
2022/01/17 11:20:52;;;;;;;1.20;1.20;;;;;;;19.05;25.53;95445.84;5091552;28;20896;-55
2022/01/17 11:23:21;;;;;;;1.07;0.97;;;;;;;19.05;24.60;95443.16;5092005;28;20497;-56
2022/01/17 11:25:55;;;;;;;2.10;1.60;;;;;;;19.42;24.67;95436.31;5091960;28;20429;-57
2022/01/17 11:28:26;;;;;;;1.03;0.87;;;;;;;19.09;25.85;95444.13;5091839;28;20432;-56
2022/01/17 11:31:04;;;;;;;1.03;1.03;;;;;;;18.69;24.77;95375.63;5091864;28;20798;-56
2022/01/17 11:33:34;;;;;;;1.50;1.40;;;;;;;17.79;25.25;95433.63;5092147;28;20507;-56
2022/01/17 11:36:04;;;;;;;2.43;2.23;;;;;;;18.65;25.77;95431.84;5091580;28;20480;-56
2022/01/17 11:38:36;;;;;;;0.70;0.60;;;;;;;19.81;24.71;95427.91;5091980;28;20425;-56
2022/01/17 11:41:07;;;;;;;0.57;0.50;;;;;;;17.64;25.42;95401.88;5091468;28;20499;-56
2022/01/17 11:43:37;;;;;;;1.83;0.60;;;;;;;18.59;25.61;95394.75;5092065;28;20489;-56
2022/01/17 11:46:26;;;;;;;1.30;1.30;;;;;;;17.74;25.50;95404.25;5091553;28;20439;-56
2022/01/17 11:48:57;;;;;;;0.60;0.53;;;;;;;18.08;24.98;95400.88;5091747;28;20428;-56
2022/01/17 11:51:39;;;;;;;0.50;0.50;;;;;;;18.09;24.46;95389.03;5091706;28;20456;-56
2022/01/17 11:54:12;;;;;;;9.13;4.27;;;;;;;17.57;25.14;95388.16;5091494;28;20436;-57
2022/01/17 11:56:46;;;;;;;3.43;2.40;;;;;;;18.38;24.46;95381.16;5091578;28;20424;-56
2022/01/17 11:59:43;;;;;;;14.93;2.40;;;;;;;17.93;25.26;95371.81;5092016;28;20436;-56
2022/01/17 12:02:20;;;;;;;0.87;0.60;;;;;;;18.44;24.64;95379.91;5082473;28;20960;-57
2022/01/17 12:05:28;;;;;;;2.10;1.00;;;;;;;19.47;23.89;95403.88;5091295;28;20424;-56
2022/01/17 12:07:57;;;;;;;0.50;0.43;;;;;;;18.69;24.09;95373.75;5091529;28;20509;-55
2022/01/17 12:10:27;;;;;;;0.50;0.40;;;;;;;19.73;22.81;95404.56;5091276;28;20478;-56
2022/01/17 12:13:37;;;;;;;2.73;0.60;;;;;;;20.45;21.65;95403.47;5091338;28;20432;-57
2022/01/17 12:16:17;;;;;;;0.80;0.77;;;;;;;20.15;21.67;95391.94;5091669;28;20443;-56